Time;durP1;ratioP1;P1;durP2;ratioP2;P2;SDS_P1;SDS_P2;PMS_P1;PMS_P2;Temp;Humidity;BMP_temperature;BMP_pressure;BME280_temperature;BME280_humidity;BME280_pressure;Samples;Min_cycle;Max_cycle;Signal;HPM_P1;HPM_P2
2021/03/10 00:10:02;;;;;;;24.00;16.80;;;;;;;2.06;79.86;96311.25;4921357;29;20458;-77
2021/03/10 00:12:28;;;;;;;22.93;16.63;;;;;;;2.07;80.72;96318.91;4924151;29;20451;-75
2021/03/10 00:14:53;;;;;;;26.00;19.10;;;;;;;2.07;81.47;96315.50;4904478;29;20543;-76
2021/03/10 00:17:19;;;;;;;26.50;17.97;;;;;;;2.12;80.70;96318.63;4918170;29;20394;-76
2021/03/10 00:19:45;;;;;;;25.73;17.40;;;;;;;2.08;81.06;96318.00;4922659;29;20075;-75
2021/03/10 00:22:11;;;;;;;22.53;16.60;;;;;;;2.12;81.16;96322.03;4919140;29;20055;-75
2021/03/10 00:24:37;;;;;;;26.27;18.03;;;;;;;2.01;81.57;96318.50;4909078;29;20528;-76
2021/03/10 00:27:03;;;;;;;25.03;18.37;;;;;;;2.06;81.86;96324.22;4928096;29;20032;-76
2021/03/10 00:29:29;;;;;;;24.87;18.63;;;;;;;2.05;81.34;96317.38;4919539;29;20031;-75
2021/03/10 00:31:54;;;;;;;24.90;17.80;;;;;;;2.02;81.31;96323.59;4924045;29;21121;-76
2021/03/10 00:34:20;;;;;;;24.97;18.53;;;;;;;2.11;81.78;96325.56;4912865;29;20042;-76
2021/03/10 00:36:46;;;;;;;25.80;17.83;;;;;;;2.04;81.57;96313.94;4902998;29;20118;-77
2021/03/10 00:39:11;;;;;;;27.90;18.53;;;;;;;2.04;82.16;96319.13;4909321;29;20083;-75
2021/03/10 00:41:37;;;;;;;25.27;18.10;;;;;;;2.00;82.44;96315.06;4908492;29;20568;-76
2021/03/10 00:44:03;;;;;;;25.87;18.50;;;;;;;2.02;82.48;96320.19;4891994;29;20037;-76
2021/03/10 00:46:29;;;;;;;26.30;19.40;;;;;;;1.92;83.26;96321.75;4912790;29;20059;-76
2021/03/10 00:48:54;;;;;;;26.30;18.70;;;;;;;1.97;83.21;96328.25;4913613;29;20035;-77
2021/03/10 00:51:20;;;;;;;30.43;18.87;;;;;;;1.95;83.06;96330.13;4927588;29;20515;-75
2021/03/10 00:53:46;;;;;;;29.03;20.03;;;;;;;1.90;83.15;96327.00;4911782;29;20024;-76
2021/03/10 00:56:12;;;;;;;27.90;19.83;;;;;;;1.95;83.18;96334.50;4906113;29;20044;-76
2021/03/10 00:58:38;;;;;;;27.83;19.30;;;;;;;1.96;83.13;96316.22;4919876;29;20473;-75
2021/03/10 01:01:04;;;;;;;26.90;19.57;;;;;;;1.92;83.45;96321.75;4909041;29;20494;-76
2021/03/10 01:03:29;;;;;;;28.03;19.80;;;;;;;1.95;83.52;96319.75;4924413;29;20042;-76
2021/03/10 01:05:55;;;;;;;29.83;20.37;;;;;;;1.82;84.02;96326.72;4919829;29;20110;-76
2021/03/10 01:08:21;;;;;;;29.47;18.37;;;;;;;1.88;83.65;96329.72;4904883;29;20119;-75
2021/03/10 01:10:47;;;;;;;27.13;19.23;;;;;;;1.84;84.41;96333.44;4912128;29;20027;-76
2021/03/10 01:13:13;;;;;;;28.03;19.37;;;;;;;1.84;84.56;96322.22;4911281;29;21214;-75
2021/03/10 01:15:40;;;;;;;28.23;18.93;;;;;;;1.89;84.20;96325.38;4929193;29;20475;-75
2021/03/10 01:18:06;;;;;;;31.23;19.40;;;;;;;1.88;84.00;96318.53;4900709;29;20554;-76
2021/03/10 01:20:32;;;;;;;28.93;21.03;;;;;;;1.82;84.91;96321.53;4913656;29;20534;-76
2021/03/10 01:22:58;;;;;;;30.90;20.43;;;;;;;1.96;85.03;96313.63;4908802;29;20027;-76
2021/03/10 01:25:24;;;;;;;31.10;21.20;;;;;;;1.88;85.01;96319.34;4910527;29;21407;-75
2021/03/10 01:27:50;;;;;;;31.67;21.07;;;;;;;1.85;84.95;96316.13;4928134;29;20499;-76
2021/03/10 01:30:16;;;;;;;30.23;20.60;;;;;;;1.83;84.57;96320.59;4908152;29;20459;-76
2021/03/10 01:32:43;;;;;;;31.50;21.57;;;;;;;1.82;85.05;96313.75;4907136;29;20050;-77
2021/03/10 01:35:10;;;;;;;28.07;20.47;;;;;;;1.74;85.38;96319.44;4913172;29;20450;-76
2021/03/10 01:37:35;;;;;;;28.00;21.37;;;;;;;1.72;85.21;96318.72;4900990;29;20538;-75
2021/03/10 01:40:06;;;;;;;28.87;19.63;;;;;;;1.70;85.40;96319.75;4906290;29;20448;-76
2021/03/10 01:42:31;;;;;;;28.60;21.37;;;;;;;1.78;85.54;96318.31;4915948;29;20062;-75
2021/03/10 01:44:57;;;;;;;32.43;21.70;;;;;;;1.73;85.37;96310.00;4927758;29;20475;-76
2021/03/10 01:47:23;;;;;;;31.87;22.30;;;;;;;1.77;85.29;96314.03;4909446;29;20043;-76
2021/03/10 01:49:49;;;;;;;31.70;20.40;;;;;;;1.80;85.79;96313.00;4912717;29;20035;-76
2021/03/10 01:52:16;;;;;;;29.13;20.13;;;;;;;1.78;85.19;96307.13;4928896;29;20036;-75
2021/03/10 01:54:42;;;;;;;31.97;21.67;;;;;;;1.74;85.32;96310.81;4931648;29;20038;-76
2021/03/10 01:57:08;;;;;;;30.67;20.97;;;;;;;1.75;85.43;96313.34;4899434;29;20539;-75
2021/03/10 01:59:34;;;;;;;31.97;21.30;;;;;;;1.67;85.38;96319.94;4889646;29;20032;-76
2021/03/10 02:02:00;;;;;;;32.90;20.60;;;;;;;1.70;85.80;96315.38;4892233;29;20032;-75
2021/03/10 02:04:25;;;;;;;31.10;20.87;;;;;;;1.71;85.54;96316.22;4927862;29;20450;-76
2021/03/10 02:22:07;;;;;;;33.13;22.43;;;;;;;1.54;86.77;96305.25;4923654;29;20474;-76
2021/03/10 02:24:38;;;;;;;35.10;22.80;;;;;;;1.56;86.98;96308.53;4929891;29;20812;-76
2021/03/10 02:27:31;;;;;;;36.40;22.90;;;;;;;1.68;87.06;96303.44;4928214;29;20872;-76
2021/03/10 02:30:06;;;;;;;28.55;17.92;;;;;;;1.64;86.95;96300.25;4913552;29;20428;-76
2021/03/10 02:32:38;;;;;;;35.20;22.80;;;;;;;1.68;86.73;96298.28;4925633;29;20160;-76
2021/03/10 02:35:07;;;;;;;32.93;22.57;;;;;;;1.60;87.25;96301.38;4927278;29;20511;-76
2021/03/10 02:37:35;;;;;;;32.40;22.27;;;;;;;1.59;87.16;96302.31;4898369;29;20463;-76
2021/03/10 02:40:02;;;;;;;31.77;21.23;;;;;;;1.52;87.48;96298.50;4904340;29;20881;-76
2021/03/10 02:42:29;;;;;;;30.87;21.93;;;;;;;1.40;88.08;96303.53;4919524;29;20485;-76
2021/03/10 02:44:56;;;;;;;33.90;23.07;;;;;;;1.44;88.21;96304.16;4909950;29;20468;-76
2021/03/10 02:47:25;;;;;;;35.07;22.60;;;;;;;1.42;88.07;96306.88;4931717;29;20455;-78
2021/03/10 02:49:53;;;;;;;33.13;22.23;;;;;;;1.45;88.42;96305.84;4932116;29;20482;-75
2021/03/10 02:52:19;;;;;;;33.73;23.93;;;;;;;1.45;88.72;96300.66;4905326;29;20544;-75
2021/03/10 02:54:47;;;;;;;32.13;22.37;;;;;;;1.42;88.49;96303.44;4887776;29;20540;-76
2021/03/10 02:57:12;;;;;;;33.67;23.00;;;;;;;1.47;88.48;96303.94;4912028;29;20458;-75
2021/03/10 02:59:39;;;;;;;35.53;23.90;;;;;;;1.48;88.80;96303.03;4904781;29;20507;-76
2021/03/10 03:02:05;;;;;;;31.13;21.63;;;;;;;1.48;89.09;96300.47;4909680;29;20601;-76
2021/03/10 03:04:30;;;;;;;37.77;23.80;;;;;;;1.47;89.36;96297.94;4906869;29;20570;-76
2021/03/10 03:06:56;;;;;;;30.43;22.27;;;;;;;1.36;89.41;96311.63;4908874;29;20055;-76
2021/03/10 03:09:22;;;;;;;37.77;23.27;;;;;;;1.38;88.99;96312.34;4928300;29;20043;-76
2021/03/10 03:11:48;;;;;;;37.30;24.63;;;;;;;1.41;89.08;96315.56;4897620;29;20028;-76
2021/03/10 03:14:16;;;;;;;35.27;22.40;;;;;;;1.49;88.58;96319.41;4907528;29;20081;-76
2021/03/10 03:16:43;;;;;;;36.53;23.37;;;;;;;1.44;88.61;96319.69;4904106;29;20824;-77
2021/03/10 03:19:09;;;;;;;38.80;24.20;;;;;;;1.39;89.23;96321.78;4925885;29;20428;-76
2021/03/10 03:21:35;;;;;;;33.00;22.97;;;;;;;1.43;88.91;96323.22;4916198;29;20514;-76
2021/03/10 03:24:02;;;;;;;33.43;22.80;;;;;;;1.46;88.59;96328.22;4918574;29;20038;-76
2021/03/10 03:26:29;;;;;;;35.70;22.90;;;;;;;1.44;89.13;96337.84;4926869;29;20036;-77
2021/03/10 03:28:56;;;;;;;33.23;23.07;;;;;;;1.53;89.47;96339.84;4917446;29;20456;-76
2021/03/10 03:31:23;;;;;;;36.63;24.57;;;;;;;1.51;89.01;96352.09;4915328;29;20431;-76
2021/03/10 03:33:49;;;;;;;34.43;23.50;;;;;;;1.48;89.15;96359.22;4911507;29;20454;-77
2021/03/10 03:36:15;;;;;;;35.33;23.60;;;;;;;1.52;89.11;96353.75;4923893;29;20454;-76
2021/03/10 03:38:41;;;;;;;34.67;23.57;;;;;;;1.45;89.34;96360.25;4925708;29;20471;-76
2021/03/10 03:41:07;;;;;;;35.13;24.23;;;;;;;1.51;89.36;96361.59;4924291;29;20039;-77
2021/03/10 03:43:33;;;;;;;35.17;24.10;;;;;;;1.53;89.30;96365.75;4929308;29;20478;-75
2021/03/10 03:45:59;;;;;;;36.17;24.33;;;;;;;1.49;89.16;96363.47;4906218;29;20514;-76
2021/03/10 03:48:25;;;;;;;37.73;23.60;;;;;;;1.47;89.04;96371.34;4923439;29;20559;-76
2021/03/10 03:50:51;;;;;;;35.60;23.37;;;;;;;1.44;88.76;96371.53;4906749;29;20499;-76
2021/03/10 03:53:17;;;;;;;32.23;22.77;;;;;;;1.47;89.29;96362.72;4903952;29;20039;-76
2021/03/10 03:55:43;;;;;;;40.13;24.83;;;;;;;1.51;89.69;96365.03;4906557;29;20039;-75
2021/03/10 03:58:09;;;;;;;34.40;23.20;;;;;;;1.59;88.88;96357.59;4906220;29;20027;-77
2021/03/10 04:00:35;;;;;;;37.93;25.10;;;;;;;1.52;88.74;96361.50;4909451;29;20475;-77
2021/03/10 04:03:02;;;;;;;39.60;25.13;;;;;;;1.54;88.67;96364.84;4897873;29;20533;-75
2021/03/10 04:05:28;;;;;;;36.77;24.27;;;;;;;1.53;89.17;96364.94;4898432;29;20039;-77
2021/03/10 04:08:03;;;;;;;35.40;24.07;;;;;;;1.50;88.90;96360.78;4921710;29;20494;-75
2021/03/10 04:10:32;;;;;;;36.37;23.30;;;;;;;1.53;89.27;96368.34;4928789;29;20519;-76
2021/03/10 04:12:59;;;;;;;36.87;25.13;;;;;;;1.56;88.79;96354.38;4918960;29;20443;-77
2021/03/10 04:15:26;;;;;;;36.30;24.00;;;;;;;1.54;88.93;96357.06;4929670;29;20462;-76
2021/03/10 04:17:52;;;;;;;36.83;23.93;;;;;;;1.64;89.21;96347.75;4926962;29;20468;-76
2021/03/10 04:20:20;;;;;;;43.67;26.60;;;;;;;1.54;89.66;96349.28;4907050;29;20479;-75
2021/03/10 04:22:47;;;;;;;39.80;24.13;;;;;;;1.60;89.74;96353.22;4911095;29;20516;-77
2021/03/10 04:25:15;;;;;;;38.23;24.77;;;;;;;1.55;89.26;96358.72;4918652;29;20452;-76
2021/03/10 04:27:41;;;;;;;43.30;26.53;;;;;;;1.56;89.40;96357.78;4919350;29;20470;-77
2021/03/10 04:30:09;;;;;;;38.77;25.10;;;;;;;1.62;89.92;96353.97;4904406;29;20451;-76
2021/03/10 04:32:35;;;;;;;39.07;26.10;;;;;;;1.56;89.82;96351.78;4908538;29;20435;-77
2021/03/10 04:35:02;;;;;;;39.20;25.40;;;;;;;1.64;88.96;96357.25;4922598;29;20439;-76
2021/03/10 04:37:28;;;;;;;40.63;25.00;;;;;;;1.69;89.01;96350.03;4917517;29;20123;-75
2021/03/10 04:39:54;;;;;;;37.27;25.83;;;;;;;1.68;89.04;96355.31;4909898;29;20539;-75
2021/03/10 04:42:20;;;;;;;44.90;26.37;;;;;;;1.60;89.58;96361.00;4929262;29;20031;-76
2021/03/10 04:44:45;;;;;;;39.63;25.03;;;;;;;1.54;89.66;96364.84;4898782;29;20054;-75
2021/03/10 04:47:11;;;;;;;36.93;24.70;;;;;;;1.55;89.56;96360.50;4917033;29;20082;-76
2021/03/10 04:49:37;;;;;;;42.87;26.10;;;;;;;1.58;89.66;96349.91;4925611;29;20032;-75
2021/03/10 04:52:03;;;;;;;40.80;24.87;;;;;;;1.64;89.23;96346.91;4921868;29;20631;-76
2021/03/10 04:54:28;;;;;;;41.57;26.93;;;;;;;1.62;89.18;96359.97;4900243;29;20123;-77
2021/03/10 04:56:54;;;;;;;35.93;24.10;;;;;;;1.62;89.67;96359.16;4929108;29;20506;-77
2021/03/10 04:59:20;;;;;;;38.87;25.87;;;;;;;1.54;90.16;96362.25;4923201;29;20043;-76
2021/03/10 05:01:45;;;;;;;40.50;26.73;;;;;;;1.53;90.01;96365.75;4911357;29;20027;-77
2021/03/10 05:04:11;;;;;;;42.07;26.77;;;;;;;1.53;89.56;96365.75;4907084;29;20040;-76
2021/03/10 05:06:37;;;;;;;43.03;27.17;;;;;;;1.59;90.34;96370.53;4905160;29;20397;-76
2021/03/10 05:09:05;;;;;;;38.40;25.63;;;;;;;1.59;90.09;96372.31;4907002;29;20050;-76
2021/03/10 05:11:31;;;;;;;42.33;25.57;;;;;;;1.53;90.08;96373.53;4914662;29;20032;-76
2021/03/10 05:13:57;;;;;;;46.87;28.13;;;;;;;1.55;89.88;96379.47;4915754;29;20494;-76
2021/03/10 05:16:22;;;;;;;43.20;26.90;;;;;;;1.62;90.15;96380.72;4917493;29;20507;-76
2021/03/10 05:18:48;;;;;;;46.70;27.13;;;;;;;1.59;89.77;96378.31;4920835;29;20478;-76
2021/03/10 05:21:14;;;;;;;42.50;27.03;;;;;;;1.64;89.88;96378.00;4918318;29;20028;-76
2021/03/10 05:23:41;;;;;;;46.43;28.20;;;;;;;1.62;89.56;96387.66;4925140;29;20032;-76
2021/03/10 05:26:11;;;;;;;48.80;29.83;;;;;;;1.67;89.73;96389.94;4911298;29;20036;-76
2021/03/10 05:28:38;;;;;;;47.37;27.83;;;;;;;1.63;89.64;96397.91;4899496;29;20464;-76
2021/03/10 05:31:03;;;;;;;46.27;27.77;;;;;;;1.65;89.61;96400.44;4905868;29;20444;-76
2021/03/10 05:33:31;;;;;;;43.53;27.50;;;;;;;1.70;89.68;96394.94;4904661;29;20478;-76
2021/03/10 05:35:57;;;;;;;45.53;27.90;;;;;;;1.65;89.55;96396.06;4917315;29;20467;-76
2021/03/10 05:38:22;;;;;;;45.97;27.33;;;;;;;1.74;89.15;96401.56;4914970;29;20571;-77
2021/03/10 05:40:48;;;;;;;45.67;27.57;;;;;;;1.67;89.41;96405.50;4916343;29;21063;-76
2021/03/10 05:43:16;;;;;;;44.03;28.10;;;;;;;1.70;89.60;96398.34;4915121;29;20050;-76
2021/03/10 05:45:43;;;;;;;46.67;28.03;;;;;;;1.67;89.75;96403.72;4918995;29;20151;-74
2021/03/10 05:48:09;;;;;;;46.27;27.57;;;;;;;1.68;89.10;96399.38;4912851;29;20475;-76
2021/03/10 05:50:34;;;;;;;45.90;28.13;;;;;;;1.76;89.42;96402.31;4933246;29;20448;-76
2021/03/10 05:53:02;;;;;;;44.50;27.50;;;;;;;1.71;89.59;96400.03;4894986;29;20075;-77
2021/03/10 05:55:29;;;;;;;43.07;27.33;;;;;;;1.74;89.49;96401.56;4911706;29;20094;-79
2021/03/10 05:57:55;;;;;;;47.87;27.83;;;;;;;1.68;89.50;96399.38;4913071;29;20542;-77
2021/03/10 06:00:21;;;;;;;43.73;27.97;;;;;;;1.73;89.67;96405.09;4898021;29;20821;-77
2021/03/10 06:02:47;;;;;;;45.60;28.07;;;;;;;1.69;89.60;96406.25;4923284;29;20062;-77
2021/03/10 06:05:24;;;;;;;42.00;27.30;;;;;;;1.71;89.72;96406.94;4905012;29;21038;-78
2021/03/10 06:08:03;;;;;;;44.03;26.77;;;;;;;1.76;89.78;96416.09;4912686;29;20024;-77
2021/03/10 06:10:46;;;;;;;48.07;28.70;;;;;;;1.76;89.91;96416.09;4897053;29;21020;-77
2021/03/10 06:13:43;;;;;;;46.90;28.60;;;;;;;1.79;89.63;96408.13;4929716;29;20882;-77
2021/03/10 06:16:22;;;;;;;44.57;29.70;;;;;;;1.71;89.66;96417.31;4926328;29;20841;-77
2021/03/10 06:18:49;;;;;;;49.13;29.37;;;;;;;1.74;89.71;96419.72;4923094;29;20853;-77
2021/03/10 06:21:17;;;;;;;45.90;28.27;;;;;;;1.82;89.22;96418.28;4908943;29;20503;-77
2021/03/10 06:23:55;;;;;;;44.70;28.23;;;;;;;1.75;89.22;96421.41;4914529;29;20913;-77
2021/03/10 06:26:26;;;;;;;47.37;29.50;;;;;;;1.77;88.99;96416.91;4914418;29;20483;-76
2021/03/10 06:28:52;;;;;;;52.33;31.07;;;;;;;1.79;89.24;96422.84;4913716;29;20439;-76
2021/03/10 06:31:23;;;;;;;45.03;28.97;;;;;;;1.78;89.69;96416.84;4895383;29;20460;-77
2021/03/10 06:34:04;;;;;;;49.50;32.10;;;;;;;1.81;89.72;96426.16;4922142;29;20542;-78
2021/03/10 06:36:33;;;;;;;48.63;30.23;;;;;;;1.80;89.36;96433.09;4924023;29;20844;-77
2021/03/10 06:38:59;;;;;;;45.57;29.20;;;;;;;1.89;89.37;96432.50;4915880;29;20467;-77
2021/03/10 06:41:39;;;;;;;47.17;28.47;;;;;;;1.87;89.83;96431.78;4893436;29;20558;-77
2021/03/10 06:44:26;;;;;;;46.27;28.77;;;;;;;1.89;88.97;96440.28;4926241;29;21031;-79
2021/03/10 06:47:00;;;;;;;45.60;28.23;;;;;;;1.93;88.71;96447.88;4907451;29;20484;-77
2021/03/10 06:49:31;;;;;;;42.17;28.38;;;;;;;1.93;88.77;96440.91;4908810;29;20493;-77
2021/03/10 06:52:09;;;;;;;51.23;29.67;;;;;;;2.01;88.69;96446.44;4898980;29;20035;-77
2021/03/10 06:54:35;;;;;;;49.07;29.30;;;;;;;2.12;88.33;96451.75;4923487;29;20488;-77
2021/03/10 06:57:03;;;;;;;47.30;28.27;;;;;;;2.19;88.82;96453.94;4913144;29;20479;-77
2021/03/10 06:59:51;;;;;;;46.43;27.37;;;;;;;2.12;88.17;96456.94;4914936;29;20858;-77
2021/03/10 07:02:17;;;;;;;43.10;27.60;;;;;;;2.10;88.28;96460.56;4929950;29;20584;-77
2021/03/10 07:04:46;;;;;;;47.03;29.33;;;;;;;2.15;88.79;96453.31;4905648;29;20444;-77
2021/03/10 07:07:12;;;;;;;49.33;29.90;;;;;;;2.15;88.05;96455.06;4930977;29;20471;-76
2021/03/10 07:09:38;;;;;;;48.33;28.97;;;;;;;2.25;88.29;96472.53;4906456;29;20475;-76
2021/03/10 07:12:07;;;;;;;43.63;27.80;;;;;;;2.32;88.37;96470.34;4914143;29;21083;-76
2021/03/10 07:14:33;;;;;;;45.13;29.33;;;;;;;2.36;87.38;96467.44;4912971;29;20527;-78
2021/03/10 07:16:59;;;;;;;47.03;29.03;;;;;;;2.46;87.24;96469.41;4898832;29;20487;-77
2021/03/10 07:19:25;;;;;;;47.83;29.20;;;;;;;2.46;87.58;96469.41;4910862;29;20518;-76
2021/03/10 07:21:56;;;;;;;46.00;27.97;;;;;;;2.52;87.58;96472.44;4914837;29;20036;-76
2021/03/10 07:24:47;;;;;;;45.97;29.03;;;;;;;2.54;87.01;96478.34;4924155;29;20035;-77
2021/03/10 07:27:15;;;;;;;47.33;29.73;;;;;;;2.60;87.14;96482.28;4900745;29;20561;-77
2021/03/10 07:29:42;;;;;;;45.60;28.67;;;;;;;2.72;86.99;96485.84;4914893;29;20511;-76
2021/03/10 07:32:09;;;;;;;44.33;27.67;;;;;;;2.75;86.72;96485.59;4894653;29;20494;-76
2021/03/10 07:34:38;;;;;;;45.70;29.27;;;;;;;2.57;87.22;96488.50;4895875;29;20809;-77
2021/03/10 07:37:15;;;;;;;45.00;28.87;;;;;;;2.49;87.26;96490.81;4913613;29;20533;-77
2021/03/10 07:39:41;;;;;;;45.63;28.47;;;;;;;2.50;87.16;96487.25;4897378;29;20467;-77
2021/03/10 07:42:15;;;;;;;50.47;29.90;;;;;;;2.46;87.25;96496.19;4909333;29;20443;-77
2021/03/10 07:44:55;;;;;;;45.50;26.60;;;;;;;2.50;87.40;96497.66;4909208;29;20534;-76
2021/03/10 07:47:21;;;;;;;46.63;29.07;;;;;;;2.43;87.40;96498.19;4911706;29;20873;-77
2021/03/10 07:49:57;;;;;;;48.63;27.80;;;;;;;2.47;87.02;96502.22;4910272;29;20561;-76
2021/03/10 07:52:26;;;;;;;52.73;30.57;;;;;;;2.55;87.57;96505.97;4914560;29;20828;-77
2021/03/10 07:55:03;;;;;;;50.47;29.90;;;;;;;2.60;87.44;96496.09;4896993;29;20448;-77
2021/03/10 07:57:28;;;;;;;49.10;29.33;;;;;;;2.51;87.33;96504.50;4926106;29;20509;-77
2021/03/10 07:59:59;;;;;;;48.60;29.40;;;;;;;2.52;87.94;96510.53;4926551;29;20486;-77
2021/03/10 08:02:28;;;;;;;51.93;31.10;;;;;;;2.51;87.70;96506.25;4908598;29;20040;-76
2021/03/10 08:04:56;;;;;;;59.43;33.77;;;;;;;2.48;88.06;96504.72;4931358;29;20428;-77
2021/03/10 08:07:26;;;;;;;51.03;29.60;;;;;;;2.31;88.17;96510.19;4927722;29;20802;-81
2021/03/10 08:09:53;;;;;;;50.03;30.10;;;;;;;2.39;88.65;96505.34;4920827;29;20463;-76
2021/03/10 08:12:31;;;;;;;53.13;31.63;;;;;;;2.46;89.09;96514.38;4910290;29;20798;-78
2021/03/10 08:14:57;;;;;;;49.87;31.03;;;;;;;2.59;88.37;96522.19;4911401;29;20447;-77
2021/03/10 08:17:29;;;;;;;52.13;31.17;;;;;;;2.66;88.74;96520.00;4909630;29;20490;-78
2021/03/10 08:20:01;;;;;;;56.97;33.37;;;;;;;2.79;88.70;96518.22;4919978;29;20126;-77
2021/03/10 08:22:29;;;;;;;51.27;31.30;;;;;;;2.78;88.33;96511.34;4914244;29;20472;-78
2021/03/10 08:24:56;;;;;;;51.53;31.10;;;;;;;2.83;88.47;96512.72;4904009;29;20424;-76
2021/03/10 08:27:36;;;;;;;49.43;31.40;;;;;;;3.04;88.25;96510.41;4909955;29;20471;-77
2021/03/10 08:30:11;;;;;;;51.47;30.80;;;;;;;3.09;87.52;96511.88;4913971;29;20575;-76
2021/03/10 08:32:37;;;;;;;56.27;31.97;;;;;;;3.25;87.37;96509.84;4913541;29;20458;-76
2021/03/10 08:35:12;;;;;;;54.07;33.43;;;;;;;3.25;85.84;96509.84;4925028;29;20479;-77
2021/03/10 08:37:38;;;;;;;52.40;32.00;;;;;;;3.31;85.80;96509.41;4924250;29;21019;-77
2021/03/10 08:40:06;;;;;;;50.73;29.97;;;;;;;3.33;85.85;96507.56;4928365;29;20519;-77
2021/03/10 08:42:32;;;;;;;60.17;34.90;;;;;;;3.48;85.52;96506.44;4894346;29;20507;-78
2021/03/10 08:44:58;;;;;;;71.50;43.67;;;;;;;3.60;85.01;96504.75;4928831;29;20439;-77
2021/03/10 08:47:25;;;;;;;150.73;85.20;;;;;;;3.73;83.68;96509.94;4912664;29;20476;-76
2021/03/10 08:50:00;;;;;;;317.90;172.13;;;;;;;3.92;83.24;96510.25;4909379;29;21052;-76
2021/03/10 08:52:27;;;;;;;217.07;136.93;;;;;;;4.15;83.26;96510.34;4902328;29;20432;-76
2021/03/10 08:55:01;;;;;;;120.60;79.93;;;;;;;4.19;83.07;96507.41;4904455;29;20463;-78
2021/03/10 08:57:33;;;;;;;54.47;35.67;;;;;;;4.00;82.43;96514.91;4893958;29;20491;-76
2021/03/10 09:00:00;;;;;;;48.70;32.27;;;;;;;3.95;82.43;96507.41;4892483;29;20507;-76
2021/03/10 09:02:33;;;;;;;46.47;28.83;;;;;;;3.97;82.53;96515.13;4925813;29;20573;-76
2021/03/10 09:05:04;;;;;;;48.83;30.80;;;;;;;3.84;82.98;96512.56;4927614;29;20459;-76
2021/03/10 09:07:32;;;;;;;48.70;29.67;;;;;;;3.73;83.02;96510.75;4911949;29;20495;-77
2021/03/10 09:10:07;;;;;;;48.43;30.63;;;;;;;3.50;83.48;96516.75;4906085;29;20543;-77
2021/03/10 09:12:38;;;;;;;49.13;31.57;;;;;;;3.74;83.31;96517.59;4918584;29;20567;-76
2021/03/10 09:15:29;;;;;;;48.37;30.77;;;;;;;3.98;83.52;96520.19;4927456;29;20428;-76
2021/03/10 09:18:14;;;;;;;50.03;30.47;;;;;;;3.96;82.82;96516.91;4922037;29;20494;-76
2021/03/10 09:20:48;;;;;;;46.77;29.47;;;;;;;4.07;82.28;96517.88;4916975;29;20820;-77
2021/03/10 09:23:24;;;;;;;52.73;32.57;;;;;;;4.02;82.92;96510.41;4912721;29;20435;-77
2021/03/10 09:25:54;;;;;;;46.37;29.27;;;;;;;4.21;81.75;96500.31;4903802;29;20472;-76
2021/03/10 09:28:34;;;;;;;48.93;28.03;;;;;;;4.49;81.46;96508.66;4910933;29;20811;-78
2021/03/10 09:31:13;;;;;;;45.27;29.47;;;;;;;4.91;80.52;96509.78;4926468;29;20032;-76
2021/03/10 09:33:41;;;;;;;47.07;28.30;;;;;;;5.20;78.87;96514.56;4907192;29;20528;-77
2021/03/10 09:36:10;;;;;;;41.60;26.77;;;;;;;5.56;77.56;96499.56;4905780;29;20043;-76
2021/03/10 09:38:52;;;;;;;40.33;26.40;;;;;;;6.35;72.93;96500.16;4899580;29;20032;-76
2021/03/10 09:41:27;;;;;;;42.40;27.67;;;;;;;6.53;73.00;96505.63;4927060;29;20398;-79
2021/03/10 09:44:08;;;;;;;38.73;25.70;;;;;;;5.95;73.09;96508.63;4914654;29;20087;-76
2021/03/10 09:46:43;;;;;;;38.10;25.07;;;;;;;5.83;73.12;96513.00;4931222;29;20052;-77
2021/03/10 09:49:11;;;;;;;36.33;24.07;;;;;;;5.31;74.26;96517.13;4903545;29;21456;-77
2021/03/10 09:51:46;;;;;;;37.63;24.70;;;;;;;4.97;75.57;96511.94;4901031;29;20035;-77
2021/03/10 09:54:13;;;;;;;40.67;25.83;;;;;;;4.83;77.45;96522.59;4915776;29;20489;-77
2021/03/10 09:56:53;;;;;;;40.07;26.13;;;;;;;4.85;78.28;96512.88;4896849;29;20115;-77
2021/03/10 09:59:35;;;;;;;41.73;26.50;;;;;;;4.86;78.84;96516.28;4916749;29;20036;-77
2021/03/10 10:02:14;;;;;;;36.23;23.73;;;;;;;4.68;75.63;96515.91;4914042;29;20028;-77
2021/03/10 10:04:42;;;;;;;36.47;23.27;;;;;;;4.83;75.36;96517.38;4911431;29;20028;-77
2021/03/10 10:07:12;;;;;;;42.73;25.00;;;;;;;4.90;76.13;96505.53;4911220;29;20031;-77
2021/03/10 10:09:53;;;;;;;39.70;23.35;;;;;;;4.79;75.41;96502.91;4926674;29;20031;-77
2021/03/10 10:12:20;;;;;;;34.27;22.73;;;;;;;5.05;74.71;96508.72;4913736;29;20457;-77
2021/03/10 10:15:06;;;;;;;36.87;22.93;;;;;;;5.18;72.02;96506.00;4924516;29;20165;-77
2021/03/10 10:17:34;;;;;;;35.30;22.30;;;;;;;5.37;72.48;96497.59;4904167;29;20040;-76
2021/03/10 10:20:07;;;;;;;32.47;20.17;;;;;;;5.63;69.84;96495.50;4904898;29;20032;-77
2021/03/10 10:22:34;;;;;;;31.23;21.23;;;;;;;5.95;68.96;96494.75;4910930;29;20370;-76
2021/03/10 10:25:01;;;;;;;43.17;27.03;;;;;;;6.00;68.62;96496.03;4924335;29;20039;-76
2021/03/10 10:27:27;;;;;;;30.67;19.60;;;;;;;6.02;68.02;96501.13;4908875;29;20067;-77
2021/03/10 10:29:53;;;;;;;31.77;19.83;;;;;;;6.41;67.10;96498.81;4905906;29;20520;-76
2021/03/10 10:32:19;;;;;;;28.90;19.73;;;;;;;7.18;63.74;96486.16;4905611;29;20028;-77
2021/03/10 10:34:49;;;;;;;29.07;18.53;;;;;;;7.17;63.58;96484.50;4895129;29;20071;-77
2021/03/10 10:37:18;;;;;;;26.30;17.73;;;;;;;7.55;61.75;96485.59;4921157;29;20544;-76
2021/03/10 10:39:52;;;;;;;26.37;17.43;;;;;;;6.71;62.18;96492.84;4896609;29;20840;-76
2021/03/10 10:42:19;;;;;;;26.47;17.63;;;;;;;6.03;63.23;96503.59;4915528;29;20070;-76
2021/03/10 10:44:47;;;;;;;29.43;20.47;;;;;;;5.95;65.60;96495.56;4929200;29;20018;-77
2021/03/10 10:47:19;;;;;;;29.33;19.60;;;;;;;6.02;65.03;96495.91;4895438;29;20028;-77
2021/03/10 10:49:46;;;;;;;30.07;20.40;;;;;;;6.14;65.68;96494.91;4928530;29;20075;-76
2021/03/10 10:52:12;;;;;;;30.13;19.60;;;;;;;6.32;66.25;96492.56;4899873;29;20019;-76
2021/03/10 10:54:41;;;;;;;33.43;21.37;;;;;;;6.68;64.71;96483.47;4909770;29;20039;-77
2021/03/10 10:57:08;;;;;;;30.20;18.93;;;;;;;6.64;62.90;96486.44;4899462;29;20028;-77
2021/03/10 10:59:38;;;;;;;26.90;17.53;;;;;;;6.79;62.68;96485.97;4898551;29;20543;-77
2021/03/10 11:02:10;;;;;;;32.67;22.37;;;;;;;6.31;61.87;96481.28;4907991;29;20028;-77
2021/03/10 11:04:39;;;;;;;35.40;24.57;;;;;;;6.36;62.69;96476.50;4894015;29;20048;-77
2021/03/10 11:07:05;;;;;;;29.80;18.77;;;;;;;6.47;62.55;96480.00;4920094;29;20035;-77
2021/03/10 11:09:42;;;;;;;35.30;22.70;;;;;;;6.25;62.05;96476.56;4914256;29;20179;-77
2021/03/10 11:12:12;;;;;;;28.73;17.87;;;;;;;6.19;62.81;96474.47;4891645;29;20118;-77
2021/03/10 11:14:41;;;;;;;37.60;24.93;;;;;;;6.71;62.05;96471.91;4894692;29;20583;-77
2021/03/10 11:17:16;;;;;;;29.27;19.47;;;;;;;7.45;58.84;96471.66;4917328;29;20450;-77
2021/03/10 11:19:47;;;;;;;37.03;25.93;;;;;;;8.40;55.46;96471.06;4932081;29;20159;-77
2021/03/10 11:22:14;;;;;;;41.90;28.90;;;;;;;8.54;54.32;96462.75;4892595;29;20032;-78
2021/03/10 11:24:40;;;;;;;49.77;36.33;;;;;;;8.81;51.82;96462.00;4892536;29;20169;-77
2021/03/10 11:27:08;;;;;;;31.50;22.10;;;;;;;8.79;51.47;96457.88;4910477;29;20480;-77
2021/03/10 11:29:36;;;;;;;20.77;14.40;;;;;;;7.96;52.91;96470.63;4927638;29;20659;-78
2021/03/10 11:32:02;;;;;;;19.53;12.50;;;;;;;7.47;53.90;96464.50;4890559;29;20034;-77
2021/03/10 11:34:32;;;;;;;23.30;14.50;;;;;;;7.16;55.11;96471.56;4898670;29;20028;-77
2021/03/10 11:36:57;;;;;;;22.87;12.53;;;;;;;6.96;54.49;96466.25;4916098;29;20046;-78
2021/03/10 11:39:23;;;;;;;20.17;12.13;;;;;;;6.94;55.66;96467.31;4893195;29;20075;-77
2021/03/10 11:41:50;;;;;;;17.90;11.00;;;;;;;6.64;55.39;96458.53;4908085;29;20508;-77
2021/03/10 11:44:15;;;;;;;19.50;12.40;;;;;;;6.81;55.60;96451.88;4924090;29;20027;-77
2021/03/10 11:46:41;;;;;;;17.43;11.60;;;;;;;6.98;55.27;96453.06;4898684;29;20031;-77
2021/03/10 11:49:07;;;;;;;20.67;11.87;;;;;;;7.21;55.13;96449.28;4902382;29;20031;-77
2021/03/10 11:51:34;;;;;;;18.80;11.60;;;;;;;7.26;54.74;96451.50;4907986;29;20028;-77
2021/03/10 11:54:00;;;;;;;16.30;9.77;;;;;;;7.57;53.35;96449.63;4894067;29;20018;-78
2021/03/10 11:56:26;;;;;;;14.13;8.33;;;;;;;7.32;52.32;96449.19;4910667;29;20412;-77